createdAt,value
2023-05-18T00:01:16.841Z,58.59
2023-05-18T00:03:43.632Z,58.89
2023-05-18T00:06:10.564Z,59.25
2023-05-18T00:08:38.645Z,59.84
2023-05-18T00:11:07.257Z,60.30
2023-05-18T00:13:33.859Z,60.75
2023-05-18T00:16:01.285Z,61.08
2023-05-18T00:18:28.251Z,62.00
2023-05-18T00:20:59.012Z,62.17
2023-05-18T00:23:33.137Z,62.59
2023-05-18T00:26:00.871Z,62.96
2023-05-18T00:28:28.406Z,62.76
2023-05-18T00:30:55.816Z,62.67
2023-05-18T00:33:23.326Z,62.52
2023-05-18T00:35:50.672Z,62.42
2023-05-18T00:38:17.842Z,62.31
2023-05-18T00:40:44.754Z,62.27
2023-05-18T00:43:11.672Z,62.28
2023-05-18T00:45:38.530Z,61.97
2023-05-18T00:48:05.479Z,61.91
2023-05-18T00:50:32.350Z,61.59
2023-05-18T00:52:59.666Z,61.94
2023-05-18T00:55:28.552Z,62.35
2023-05-18T00:57:56.901Z,61.92
2023-05-18T01:00:23.898Z,61.50
2023-05-18T01:02:51.326Z,61.41
2023-05-18T01:05:30.285Z,61.41
2023-05-18T01:07:57.956Z,61.17
2023-05-18T01:10:24.806Z,61.24
2023-05-18T01:12:51.240Z,60.83
2023-05-18T01:15:33.975Z,61.30
2023-05-18T01:18:15.174Z,61.10
2023-05-18T01:20:48.990Z,60.55
2023-05-18T01:23:54.991Z,60.24
2023-05-18T01:26:42.662Z,60.05
2023-05-18T01:29:12.939Z,59.41
2023-05-18T01:31:42.169Z,59.15
2023-05-18T01:34:11.789Z,59.59
2023-05-18T01:36:38.360Z,58.44
2023-05-18T01:39:05.417Z,58.39
2023-05-18T01:41:37.084Z,58.08
2023-05-18T01:44:09.530Z,57.80
2023-05-18T01:46:59.360Z,57.77
2023-05-18T01:49:53.198Z,58.17
2023-05-18T01:52:44.622Z,58.24
2023-05-18T01:55:18.722Z,57.56
2023-05-18T01:57:48.357Z,57.38
2023-05-18T02:00:16.783Z,56.69
2023-05-18T02:02:43.998Z,56.77
2023-05-18T02:05:13.482Z,56.90
2023-05-18T02:07:47.475Z,56.90
2023-05-18T02:10:14.805Z,57.37
2023-05-18T02:12:41.551Z,57.20
2023-05-18T02:15:08.598Z,57.08
2023-05-18T02:17:38.152Z,56.73
2023-05-18T02:20:10.252Z,56.37
2023-05-18T02:22:37.136Z,56.89
2023-05-18T02:25:05.115Z,56.70
2023-05-18T02:27:36.098Z,56.62
2023-05-18T02:30:05.169Z,56.85
2023-05-18T02:35:09.087Z,57.44
2023-05-18T02:37:39.840Z,56.91
2023-05-18T02:40:16.314Z,56.80
2023-05-18T02:42:42.920Z,56.50
2023-05-18T02:45:09.708Z,57.07
2023-05-18T02:47:36.317Z,56.69
2023-05-18T02:50:03.033Z,56.90
2023-05-18T02:52:29.539Z,57.25
2023-05-18T02:54:56.237Z,57.15
2023-05-18T02:57:22.837Z,57.60
2023-05-18T02:59:49.401Z,57.46
2023-05-18T03:02:16.505Z,57.72
2023-05-18T03:04:43.216Z,57.43
2023-05-18T03:07:10.444Z,57.70
2023-05-18T03:09:37.349Z,58.45
2023-05-18T03:12:04.268Z,58.29
2023-05-18T03:14:30.897Z,58.20
2023-05-18T03:16:57.917Z,57.97
2023-05-18T03:19:27.032Z,58.34
2023-05-18T03:21:53.679Z,58.46
2023-05-18T03:24:20.458Z,59.04
2023-05-18T03:26:47.062Z,58.29
2023-05-18T03:29:13.741Z,58.76
2023-05-18T03:31:41.017Z,58.61
2023-05-18T03:34:07.688Z,58.47
2023-05-18T03:36:35.596Z,58.63
2023-05-18T03:39:02.426Z,58.91
2023-05-18T03:41:29.960Z,58.86
2023-05-18T03:43:56.623Z,59.08
2023-05-18T03:46:23.555Z,59.34
2023-05-18T03:48:50.588Z,59.20
2023-05-18T03:51:17.136Z,59.11
2023-05-18T03:53:43.979Z,59.10
2023-05-18T03:56:10.587Z,58.80
2023-05-18T03:58:37.098Z,59.21
2023-05-18T04:01:04.524Z,59.68
2023-05-18T04:03:31.352Z,59.69
2023-05-18T04:05:57.916Z,60.26
2023-05-18T04:08:25.765Z,58.90
2023-05-18T04:10:52.544Z,57.97
2023-05-18T04:13:19.092Z,57.49
2023-05-18T04:15:46.066Z,57.26
2023-05-18T04:18:13.665Z,57.26
2023-05-18T04:20:41.641Z,57.27
2023-05-18T04:23:10.073Z,56.37
2023-05-18T04:25:39.629Z,56.59
2023-05-18T04:28:06.138Z,56.88
2023-05-18T04:30:32.993Z,56.23
2023-05-18T04:33:00.567Z,55.79
2023-05-18T04:35:27.986Z,55.53
2023-05-18T04:37:54.690Z,55.82
2023-05-18T04:40:21.410Z,55.21
2023-05-18T04:42:48.942Z,55.31
2023-05-18T04:45:17.207Z,54.88
2023-05-18T04:47:46.758Z,54.47
2023-05-18T04:50:15.203Z,54.61
2023-05-18T04:52:48.128Z,54.86
2023-05-18T04:55:16.593Z,53.18
2023-05-18T04:57:44.847Z,53.05
2023-05-18T05:00:13.078Z,52.84
2023-05-18T05:02:40.504Z,53.36
2023-05-18T05:05:07.583Z,52.75
2023-05-18T05:07:34.175Z,52.46
2023-05-18T05:10:00.682Z,53.02
2023-05-18T05:12:27.131Z,52.79
2023-05-18T05:14:54.193Z,52.78
2023-05-18T05:17:20.722Z,52.51
2023-05-18T05:19:47.367Z,51.85
2023-05-18T05:22:14.627Z,52.24
2023-05-18T05:24:41.150Z,52.23
2023-05-18T05:27:07.616Z,52.56
2023-05-18T05:29:34.105Z,52.62
2023-05-18T05:32:01.041Z,51.71
2023-05-18T05:34:27.656Z,50.95
2023-05-18T05:36:54.154Z,51.16
2023-05-18T05:39:20.754Z,51.22
2023-05-18T05:41:47.236Z,51.28
2023-05-18T05:44:13.684Z,50.77
2023-05-18T05:46:40.230Z,50.86
2023-05-18T05:49:07.181Z,50.51
2023-05-18T05:51:33.695Z,49.84
2023-05-18T05:54:00.296Z,50.22
2023-05-18T05:56:26.808Z,49.52
2023-05-18T05:58:53.426Z,50.48
2023-05-18T06:01:19.881Z,49.73
2023-05-18T06:03:46.488Z,50.03
2023-05-18T06:06:13.386Z,49.53
2023-05-18T06:08:40.031Z,49.36
2023-05-18T06:11:08.232Z,49.60
2023-05-18T06:13:36.486Z,49.30
2023-05-18T06:16:03.259Z,50.15
2023-05-18T06:18:29.862Z,49.70
2023-05-18T06:20:57.044Z,49.10
2023-05-18T06:23:23.715Z,48.39
2023-05-18T06:25:50.263Z,48.54
2023-05-18T06:28:16.758Z,48.18
2023-05-18T06:30:43.580Z,48.46
2023-05-18T06:33:10.275Z,47.73
2023-05-18T06:35:37.056Z,48.06
2023-05-18T06:38:03.718Z,47.70
2023-05-18T06:40:30.193Z,47.93
2023-05-18T06:42:56.748Z,47.78
2023-05-18T06:45:23.251Z,47.76
2023-05-18T06:47:50.059Z,47.64
2023-05-18T06:50:16.658Z,47.67
2023-05-18T06:52:44.393Z,47.77
2023-05-18T06:55:11.063Z,48.05
2023-05-18T06:57:37.606Z,48.35
2023-05-18T07:00:07.232Z,47.44
2023-05-18T07:02:33.837Z,47.40
2023-05-18T07:05:01.518Z,47.50
2023-05-18T07:07:28.066Z,46.59
2023-05-18T07:09:54.969Z,46.50
2023-05-18T07:12:22.570Z,46.00
2023-05-18T07:14:49.149Z,46.47
2023-05-18T07:17:15.708Z,46.27
2023-05-18T07:19:42.193Z,45.53
2023-05-18T07:22:08.956Z,45.78
2023-05-18T07:24:38.520Z,45.57
2023-05-18T07:27:05.791Z,46.14
2023-05-18T07:29:32.409Z,45.31
2023-05-18T07:31:58.983Z,45.01
2023-05-18T07:34:27.272Z,45.05
2023-05-18T07:36:53.985Z,45.82
2023-05-18T07:39:20.739Z,44.61
2023-05-18T07:41:49.465Z,43.33
2023-05-18T07:44:16.091Z,42.83
2023-05-18T07:46:43.535Z,43.45
2023-05-18T07:49:10.343Z,42.47
2023-05-18T07:51:36.850Z,42.42
2023-05-18T07:54:03.525Z,42.57
2023-05-18T07:56:30.386Z,42.48
2023-05-18T07:58:57.165Z,43.07
2023-05-18T08:01:27.522Z,43.43
2023-05-18T08:03:54.750Z,42.31
2023-05-18T08:06:21.391Z,43.33
2023-05-18T08:08:48.152Z,42.51
2023-05-18T08:11:14.745Z,42.83
2023-05-18T08:13:41.239Z,43.07
2023-05-18T08:16:12.293Z,42.23
2023-05-18T08:18:39.701Z,42.91
2023-05-18T08:21:10.096Z,42.74
2023-05-18T08:23:36.956Z,43.58
2023-05-18T08:26:03.793Z,43.01
2023-05-18T08:28:31.106Z,41.42
2023-05-18T08:30:57.939Z,41.80
2023-05-18T08:33:24.568Z,41.35
2023-05-18T08:35:51.405Z,40.57
2023-05-18T08:38:18.098Z,40.38
2023-05-18T08:41:15.061Z,40.54
2023-05-18T08:43:45.819Z,39.28
2023-05-18T08:46:32.008Z,40.23
2023-05-18T08:48:59.401Z,39.83
2023-05-18T08:51:29.468Z,39.53
2023-05-18T08:53:56.911Z,39.42
2023-05-18T08:56:24.851Z,39.97
2023-05-18T08:58:56.189Z,39.26
2023-05-18T09:01:28.506Z,39.90
2023-05-18T09:03:59.762Z,40.22
2023-05-18T09:06:28.319Z,39.73
2023-05-18T09:08:59.402Z,39.41
2023-05-18T09:11:27.408Z,40.27
2023-05-18T09:13:55.050Z,39.31
2023-05-18T09:16:21.742Z,39.50
2023-05-18T09:18:48.402Z,39.99
2023-05-18T09:21:14.862Z,39.88
2023-05-18T09:23:42.218Z,40.77
2023-05-18T09:26:10.153Z,39.45
2023-05-18T09:28:41.943Z,39.09
2023-05-18T09:31:12.687Z,38.99
2023-05-18T09:33:40.674Z,38.64
2023-05-18T09:36:08.652Z,37.52
2023-05-18T09:38:39.458Z,36.37
2023-05-18T09:41:17.240Z,37.35
2023-05-18T09:43:45.388Z,36.55
2023-05-18T09:46:13.360Z,36.00
2023-05-18T09:48:45.929Z,35.50
2023-05-18T09:51:16.618Z,36.83
2023-05-18T09:53:55.468Z,36.00
2023-05-18T09:56:24.060Z,34.82
2023-05-18T09:58:50.661Z,34.69
2023-05-18T10:01:17.329Z,33.68
2023-05-18T10:03:45.657Z,33.75
2023-05-18T10:06:17.267Z,34.29
2023-05-18T10:08:45.499Z,33.79
2023-05-18T10:11:12.305Z,33.57
2023-05-18T10:13:38.965Z,32.55
2023-05-18T10:16:07.793Z,33.56
2023-05-18T10:18:37.578Z,32.56
2023-05-18T10:21:07.009Z,32.08
2023-05-18T10:23:35.693Z,32.21
2023-05-18T10:26:07.125Z,32.51
2023-05-18T10:28:38.711Z,31.88
2023-05-18T10:31:06.688Z,31.93
2023-05-18T10:33:35.688Z,31.36
2023-05-18T10:36:04.310Z,31.21
2023-05-18T10:38:31.786Z,31.25
2023-05-18T10:41:02.684Z,31.10
2023-05-18T10:43:29.227Z,30.90
2023-05-18T10:46:00.885Z,31.47
2023-05-18T10:48:29.549Z,30.58
2023-05-18T10:50:58.084Z,31.30
2023-05-18T10:53:29.835Z,31.29
2023-05-18T10:55:56.374Z,31.32
2023-05-18T10:58:26.325Z,31.90
2023-05-18T11:01:07.706Z,31.16
2023-05-18T11:03:34.338Z,30.56
2023-05-18T11:06:08.822Z,31.75
2023-05-18T11:08:43.610Z,31.29
2023-05-18T11:11:10.443Z,31.70
2023-05-18T11:13:43.512Z,32.00
2023-05-18T11:16:10.449Z,31.76
2023-05-18T11:18:43.088Z,32.09
2023-05-18T11:21:24.978Z,33.00
2023-05-18T11:24:21.279Z,32.77
2023-05-18T11:26:49.196Z,30.83
2023-05-18T11:29:36.581Z,31.11
2023-05-18T11:32:04.865Z,31.17
2023-05-18T11:34:39.430Z,30.99
2023-05-18T11:37:10.003Z,31.56
2023-05-18T11:39:44.920Z,31.40
2023-05-18T11:42:18.818Z,31.86
2023-05-18T11:44:52.829Z,31.22
2023-05-18T11:47:19.805Z,30.20
2023-05-18T11:49:48.516Z,30.05
2023-05-18T11:52:25.789Z,31.09
2023-05-18T11:54:53.257Z,30.58
2023-05-18T11:57:42.198Z,30.16
2023-05-18T12:00:15.075Z,30.07
2023-05-18T12:02:48.503Z,30.23
2023-05-18T12:05:15.443Z,30.96
2023-05-18T12:07:42.210Z,30.78
2023-05-18T12:10:11.629Z,31.23
2023-05-18T12:12:40.019Z,30.78
2023-05-18T12:15:08.726Z,30.99
2023-05-18T12:17:45.680Z,31.39
2023-05-18T12:20:14.463Z,31.63
2023-05-18T12:22:42.635Z,31.74
2023-05-18T12:25:10.029Z,31.41
2023-05-18T12:27:40.736Z,31.84
2023-05-18T12:30:38.642Z,33.07
2023-05-18T12:33:06.849Z,32.81
2023-05-18T12:35:33.774Z,32.21
2023-05-18T12:38:01.412Z,32.26
2023-05-18T12:40:40.229Z,32.49
2023-05-18T12:43:06.694Z,31.90
2023-05-18T12:45:34.268Z,32.27
2023-05-18T12:48:08.640Z,32.18
2023-05-18T12:50:37.050Z,31.34
2023-05-18T12:53:03.555Z,31.32
2023-05-18T12:55:32.133Z,31.09
2023-05-18T12:58:02.462Z,31.79
2023-05-18T13:00:35.675Z,31.70
2023-05-18T13:03:12.775Z,30.70
2023-05-18T13:05:44.104Z,31.14
2023-05-18T13:08:17.117Z,31.92
2023-05-18T13:10:45.063Z,31.48
2023-05-18T13:13:15.448Z,30.79
2023-05-18T13:15:43.968Z,31.00
2023-05-18T13:18:11.699Z,31.37
2023-05-18T13:20:50.924Z,30.94
2023-05-18T13:23:19.679Z,32.57
2023-05-18T13:25:48.822Z,31.69
2023-05-18T13:28:17.965Z,31.75
2023-05-18T13:30:47.106Z,32.57
2023-05-18T13:33:13.916Z,31.81
2023-05-18T13:35:42.179Z,31.57
2023-05-18T13:38:10.063Z,31.22
2023-05-18T13:40:37.664Z,31.23
2023-05-18T13:43:06.107Z,31.21
2023-05-18T13:45:33.093Z,31.94
2023-05-18T13:47:59.779Z,31.28
2023-05-18T13:50:26.607Z,30.88
2023-05-18T13:52:54.553Z,30.75
2023-05-18T13:55:21.235Z,31.02
2023-05-18T13:57:47.767Z,30.42
2023-05-18T14:00:16.060Z,30.53
2023-05-18T14:02:44.377Z,30.02
2023-05-18T14:05:12.080Z,29.81
2023-05-18T14:07:40.245Z,30.04
2023-05-18T14:10:08.045Z,29.79
2023-05-18T14:12:34.893Z,29.17
2023-05-18T14:15:02.119Z,30.36
2023-05-18T14:17:31.242Z,29.76
2023-05-18T14:19:57.888Z,29.49
2023-05-18T14:22:26.220Z,29.37
2023-05-18T14:24:53.651Z,28.97
2023-05-18T14:27:22.896Z,29.55
2023-05-18T14:29:50.835Z,29.03
2023-05-18T14:32:18.053Z,28.48
2023-05-18T14:34:44.492Z,29.58
2023-05-18T14:37:10.901Z,29.38
2023-05-18T14:39:37.881Z,29.62
2023-05-18T14:42:05.260Z,29.59
2023-05-18T14:44:31.898Z,29.66
2023-05-18T14:46:58.462Z,28.99
2023-05-18T14:49:24.910Z,29.06
2023-05-18T14:51:51.428Z,29.08
2023-05-18T14:54:19.049Z,30.20
2023-05-18T14:56:45.777Z,29.39
2023-05-18T14:59:12.456Z,29.36
2023-05-18T15:01:39.519Z,30.53
2023-05-18T15:04:06.139Z,29.77
2023-05-18T15:06:33.396Z,30.59
2023-05-18T15:08:59.930Z,30.29
2023-05-18T15:11:26.467Z,30.84
2023-05-18T15:13:52.946Z,29.82
2023-05-18T15:16:19.941Z,30.08
2023-05-18T15:18:47.071Z,30.46
2023-05-18T15:21:13.736Z,30.50
2023-05-18T15:23:40.224Z,30.66
2023-05-18T15:26:08.951Z,29.69
2023-05-18T15:28:35.972Z,29.39
2023-05-18T15:31:02.479Z,28.88
2023-05-18T15:33:28.999Z,28.77
2023-05-18T15:35:55.662Z,29.51
2023-05-18T15:38:22.201Z,30.68
2023-05-18T15:40:50.321Z,28.10
2023-05-18T15:43:17.216Z,29.29
2023-05-18T15:45:43.769Z,29.46
2023-05-18T15:48:10.607Z,28.26
2023-05-18T15:50:37.235Z,28.79
2023-05-18T15:53:03.807Z,27.70
2023-05-18T15:55:30.371Z,28.30
2023-05-18T15:57:56.853Z,28.44
2023-05-18T16:00:23.775Z,28.08
2023-05-18T16:02:50.445Z,28.32
2023-05-18T16:05:17.075Z,27.99
2023-05-18T16:07:43.711Z,28.24
2023-05-18T16:10:10.538Z,27.40
2023-05-18T16:12:37.129Z,26.96
2023-05-18T16:15:05.355Z,26.97
2023-05-18T16:17:31.829Z,27.72
2023-05-18T16:19:58.413Z,26.75
2023-05-18T16:22:24.852Z,26.48
2023-05-18T16:24:51.531Z,26.69
2023-05-18T16:27:18.065Z,26.68
2023-05-18T16:29:44.542Z,27.34
2023-05-18T16:32:11.347Z,27.75
2023-05-18T16:34:37.829Z,28.29
2023-05-18T16:37:04.471Z,28.89
2023-05-18T16:39:30.994Z,29.30
2023-05-18T16:41:57.513Z,30.61
2023-05-18T16:44:23.957Z,29.51
2023-05-18T16:46:50.573Z,30.82
2023-05-18T16:49:17.394Z,31.18
2023-05-18T16:51:44.013Z,30.21
2023-05-18T16:54:10.736Z,29.15
2023-05-18T16:56:37.295Z,29.82
2023-05-18T16:59:04.049Z,28.71
2023-05-18T17:01:31.227Z,29.88
2023-05-18T17:03:57.912Z,28.38
2023-05-18T17:06:25.615Z,27.61
2023-05-18T17:08:57.453Z,28.68
2023-05-18T17:11:26.924Z,29.12
2023-05-18T17:13:53.705Z,29.69
2023-05-18T17:16:22.122Z,29.18
2023-05-18T17:18:49.026Z,29.47
2023-05-18T17:21:16.107Z,30.23
2023-05-18T17:23:42.644Z,30.81
2023-05-18T17:26:09.186Z,27.97
2023-05-18T17:28:35.988Z,28.99
2023-05-18T17:31:02.671Z,28.37
2023-05-18T17:33:29.195Z,28.30
2023-05-18T17:35:55.767Z,28.92
2023-05-18T17:38:22.672Z,28.88
2023-05-18T17:40:49.210Z,29.06
2023-05-18T17:43:15.683Z,28.38
2023-05-18T17:45:42.203Z,28.89
2023-05-18T17:48:08.872Z,28.98
2023-05-18T17:50:37.632Z,28.18
2023-05-18T17:53:04.915Z,29.21
2023-05-18T17:55:31.956Z,30.15
2023-05-18T17:58:01.002Z,28.52
2023-05-18T18:00:27.668Z,28.18
2023-05-18T18:02:55.140Z,29.29
2023-05-18T18:05:22.147Z,30.35
2023-05-18T18:07:48.629Z,28.64
2023-05-18T18:10:15.225Z,28.18
2023-05-18T18:12:42.661Z,28.76
2023-05-18T18:15:10.048Z,28.29
2023-05-18T18:17:36.651Z,28.36
2023-05-18T18:20:05.634Z,29.06
2023-05-18T18:22:33.119Z,30.87
2023-05-18T18:25:01.578Z,30.44
2023-05-18T18:27:28.007Z,31.06
2023-05-18T18:29:54.813Z,31.95
2023-05-18T18:32:21.294Z,32.68
2023-05-18T18:34:47.709Z,33.39
2023-05-18T18:37:14.158Z,33.16
2023-05-18T18:39:40.756Z,34.13
2023-05-18T18:42:07.318Z,34.90
2023-05-18T18:44:33.763Z,35.10
2023-05-18T18:47:00.254Z,36.23
2023-05-18T18:49:26.830Z,37.17
2023-05-18T18:51:53.599Z,38.14
2023-05-18T18:54:20.136Z,38.94
2023-05-18T18:56:46.638Z,39.58
2023-05-18T18:59:13.102Z,39.46
2023-05-18T19:01:39.762Z,40.71
2023-05-18T19:04:06.342Z,41.05
2023-05-18T19:06:34.431Z,42.01
2023-05-18T19:09:00.890Z,41.91
2023-05-18T19:11:27.316Z,42.70
2023-05-18T19:13:53.852Z,43.16
2023-05-18T19:16:21.525Z,43.39
2023-05-18T19:18:48.317Z,43.27
2023-05-18T19:21:15.068Z,44.12
2023-05-18T19:23:41.590Z,44.28
2023-05-18T19:26:08.906Z,44.38
2023-05-18T19:28:35.557Z,44.82
2023-05-18T19:31:05.318Z,45.30
2023-05-18T19:33:32.130Z,45.51
2023-05-18T19:35:58.591Z,46.04
2023-05-18T19:38:25.070Z,46.23
2023-05-18T19:40:51.497Z,46.63
2023-05-18T19:43:17.974Z,47.33
2023-05-18T19:45:44.505Z,47.10
2023-05-18T19:48:12.452Z,48.26
2023-05-18T19:50:38.956Z,48.01
2023-05-18T19:53:05.636Z,48.84
2023-05-18T19:55:32.634Z,49.07
2023-05-18T19:57:59.283Z,49.43
2023-05-18T20:00:26.443Z,49.83
2023-05-18T20:02:53.123Z,50.20
2023-05-18T20:05:19.754Z,50.77
2023-05-18T20:07:46.296Z,50.20
2023-05-18T20:10:12.849Z,50.50
2023-05-18T20:12:40.983Z,50.78
2023-05-18T20:15:08.695Z,52.08
2023-05-18T20:17:36.541Z,51.82
2023-05-18T20:20:06.084Z,51.85
2023-05-18T20:22:32.576Z,52.68
2023-05-18T20:25:01.111Z,52.74
2023-05-18T20:27:28.087Z,52.78
2023-05-18T20:29:56.280Z,53.25
2023-05-18T20:32:22.987Z,53.43
2023-05-18T20:34:49.572Z,53.62
2023-05-18T20:37:16.107Z,54.32
2023-05-18T20:39:50.253Z,54.33
2023-05-18T20:42:21.946Z,55.14
2023-05-18T20:44:51.227Z,55.19
2023-05-18T20:47:21.788Z,56.14
2023-05-18T20:49:48.533Z,56.01
2023-05-18T20:52:15.254Z,56.29
2023-05-18T20:54:41.777Z,56.50
2023-05-18T20:57:08.470Z,56.96
2023-05-18T20:59:35.007Z,56.63
2023-05-18T21:02:01.559Z,56.69
2023-05-18T21:04:28.267Z,57.15
2023-05-18T21:06:54.794Z,57.53
2023-05-18T21:09:21.543Z,58.00
2023-05-18T21:11:48.426Z,57.78
2023-05-18T21:14:15.479Z,58.12
2023-05-18T21:16:41.964Z,58.41
2023-05-18T21:19:10.988Z,58.64
2023-05-18T21:21:37.607Z,58.48
2023-05-18T21:24:04.173Z,58.86
2023-05-18T21:26:30.819Z,58.99
2023-05-18T21:28:57.593Z,58.93
2023-05-18T21:31:24.094Z,59.11
2023-05-18T21:33:52.702Z,59.04
2023-05-18T21:36:33.796Z,58.97
2023-05-18T21:39:05.474Z,59.28
2023-05-18T21:41:35.114Z,59.51
2023-05-18T21:44:01.731Z,59.77
2023-05-18T21:46:28.736Z,60.72
2023-05-18T21:48:59.726Z,60.88
2023-05-18T21:51:26.301Z,61.34
2023-05-18T21:53:52.810Z,61.63
2023-05-18T21:56:19.652Z,61.76
2023-05-18T21:58:46.308Z,61.79
2023-05-18T22:01:13.271Z,62.44
2023-05-18T22:03:40.352Z,62.29
2023-05-18T22:06:07.190Z,62.60
2023-05-18T22:08:33.602Z,63.62
2023-05-18T22:11:00.048Z,63.80
2023-05-18T22:13:26.722Z,63.80
2023-05-18T22:15:53.213Z,64.28
2023-05-18T22:18:20.988Z,64.96
2023-05-18T22:20:47.437Z,65.38
2023-05-18T22:23:13.947Z,65.49
2023-05-18T22:25:40.680Z,66.10
2023-05-18T22:28:07.186Z,66.02
2023-05-18T22:30:33.844Z,66.40
2023-05-18T22:33:00.561Z,66.73
2023-05-18T22:35:27.367Z,66.44
2023-05-18T22:37:53.807Z,66.81
2023-05-18T22:40:20.411Z,66.79
2023-05-18T22:42:46.896Z,67.02
2023-05-18T22:45:13.996Z,67.33
2023-05-18T22:47:40.501Z,68.05
2023-05-18T22:50:07.756Z,68.06
2023-05-18T22:52:34.860Z,68.43
2023-05-18T22:55:01.685Z,68.73
2023-05-18T22:57:28.173Z,68.82
2023-05-18T22:59:54.738Z,68.72
2023-05-18T23:02:21.169Z,69.38
2023-05-18T23:04:47.642Z,69.14
2023-05-18T23:07:14.164Z,69.76
2023-05-18T23:09:40.621Z,69.92
2023-05-18T23:12:07.613Z,69.97
2023-05-18T23:14:34.069Z,70.45
2023-05-18T23:17:00.821Z,70.47
2023-05-18T23:19:27.548Z,70.65
2023-05-18T23:21:54.475Z,71.09
2023-05-18T23:24:21.720Z,71.17
2023-05-18T23:26:48.606Z,70.82
2023-05-18T23:29:15.119Z,71.28
2023-05-18T23:31:41.571Z,71.56
2023-05-18T23:34:08.338Z,71.64
2023-05-18T23:36:35.164Z,71.57
2023-05-18T23:39:02.266Z,72.18
2023-05-18T23:41:30.771Z,72.55
2023-05-18T23:43:58.227Z,72.47
2023-05-18T23:46:25.426Z,72.80
2023-05-18T23:48:52.409Z,72.55
2023-05-18T23:51:23.007Z,73.10
2023-05-18T23:53:51.333Z,73.36
2023-05-18T23:56:18.284Z,73.52
2023-05-18T23:58:46.677Z,73.55
